createdAt,value
2018-10-17T00:00:54.014Z,20.37
2018-10-17T00:03:23.097Z,19.47
2018-10-17T00:05:51.398Z,20.73
2018-10-17T00:08:20.001Z,20.97
2018-10-17T00:10:48.791Z,21.53
2018-10-17T00:13:17.075Z,19.73
2018-10-17T00:15:45.456Z,21.50
2018-10-17T00:18:14.035Z,21.90
2018-10-17T00:20:42.359Z,22.50
2018-10-17T00:23:10.758Z,22.13
2018-10-17T00:25:39.685Z,22.60
2018-10-17T00:28:07.983Z,9.00
2018-10-17T00:30:38.059Z,22.07
2018-10-17T00:33:06.707Z,23.97
2018-10-17T00:35:35.020Z,24.80
2018-10-17T00:38:03.531Z,24.13
2018-10-17T00:40:32.008Z,27.17
2018-10-17T00:43:00.227Z,25.90
2018-10-17T00:45:28.731Z,28.40
2018-10-17T00:47:57.602Z,13.53
2018-10-17T00:50:26.212Z,29.70
2018-10-17T00:52:54.851Z,28.27
2018-10-17T00:55:23.328Z,30.27
2018-10-17T00:57:51.659Z,27.40
2018-10-17T01:00:21.213Z,29.80
2018-10-17T01:02:49.699Z,26.93
2018-10-17T01:05:17.991Z,27.00
2018-10-17T01:07:46.436Z,31.00
2018-10-17T01:10:15.143Z,28.87
2018-10-17T01:12:43.473Z,28.40
2018-10-17T01:15:12.021Z,26.63
2018-10-17T01:17:40.711Z,29.23
2018-10-17T01:20:09.447Z,27.33
2018-10-17T01:22:38.323Z,30.40
2018-10-17T01:25:07.583Z,27.17
2018-10-17T01:27:35.839Z,23.97
2018-10-17T01:30:04.787Z,20.90
2018-10-17T01:32:33.523Z,26.23
2018-10-17T01:35:01.881Z,21.43
2018-10-17T01:37:30.923Z,19.37
2018-10-17T01:39:59.785Z,15.97
2018-10-17T01:42:28.079Z,15.47
2018-10-17T01:44:56.720Z,27.80
2018-10-17T01:47:25.208Z,30.97
2018-10-17T01:49:53.509Z,18.37
2018-10-17T01:52:22.143Z,30.17
2018-10-17T01:54:50.681Z,28.87
2018-10-17T01:57:19.043Z,28.50
2018-10-17T01:59:47.575Z,27.83
2018-10-17T02:02:16.071Z,25.30
2018-10-17T02:04:44.341Z,26.57
2018-10-17T02:07:13.511Z,31.13
2018-10-17T02:09:42.165Z,13.87
2018-10-17T02:12:10.487Z,27.07
2018-10-17T02:14:39.080Z,23.17
2018-10-17T02:17:07.709Z,19.33
2018-10-17T02:19:35.991Z,26.80
2018-10-17T02:22:04.725Z,8.47
2018-10-17T02:24:33.237Z,21.73
2018-10-17T02:27:01.516Z,28.17
2018-10-17T02:29:29.973Z,26.13
2018-10-17T02:31:58.765Z,28.00
2018-10-17T02:34:27.075Z,29.33
2018-10-17T02:36:56.484Z,23.57
2018-10-17T02:39:25.176Z,28.43
2018-10-17T02:41:53.475Z,25.17
2018-10-17T02:44:21.954Z,24.07
2018-10-17T02:46:50.800Z,28.57
2018-10-17T02:49:19.219Z,24.20
2018-10-17T02:51:47.935Z,20.33
2018-10-17T02:54:16.648Z,29.17
2018-10-17T02:56:44.940Z,30.83
2018-10-17T02:59:13.488Z,28.07
2018-10-17T03:01:42.621Z,11.27
2018-10-17T03:04:10.944Z,12.57
2018-10-17T03:06:39.852Z,8.10
2018-10-17T03:09:08.732Z,7.77
2018-10-17T03:11:37.018Z,7.70
2018-10-17T03:14:05.543Z,7.10
2018-10-17T03:16:34.438Z,23.17
2018-10-17T03:19:02.800Z,9.33
2018-10-17T03:21:31.354Z,23.07
2018-10-17T03:24:00.065Z,8.00
2018-10-17T03:26:28.362Z,12.47
2018-10-17T03:28:57.078Z,7.80
2018-10-17T03:31:25.565Z,16.87
2018-10-17T03:33:53.809Z,9.07
2018-10-17T03:36:22.433Z,19.53
2018-10-17T03:38:50.977Z,22.83
2018-10-17T03:41:19.382Z,22.87
2018-10-17T03:43:47.936Z,22.53
2018-10-17T03:46:16.646Z,8.97
2018-10-17T03:48:44.939Z,15.87
2018-10-17T03:51:13.533Z,23.87
2018-10-17T03:53:42.195Z,25.37
2018-10-17T03:56:10.467Z,7.07
2018-10-17T03:58:39.041Z,17.97
2018-10-17T04:01:07.402Z,19.40
2018-10-17T04:03:35.706Z,20.13
2018-10-17T04:06:04.110Z,27.77
2018-10-17T04:08:33.014Z,25.23
2018-10-17T04:11:01.381Z,29.03
2018-10-17T04:13:29.927Z,31.13
2018-10-17T04:15:58.383Z,27.77
2018-10-17T04:18:26.665Z,25.10
2018-10-17T04:20:55.306Z,15.40
2018-10-17T04:23:23.801Z,19.87
2018-10-17T04:25:52.457Z,30.30
2018-10-17T04:28:21.167Z,25.23
2018-10-17T04:30:49.855Z,25.67
2018-10-17T04:33:18.307Z,27.07
2018-10-17T04:35:47.021Z,26.90
2018-10-17T04:38:15.585Z,28.97
2018-10-17T04:40:43.899Z,29.27
2018-10-17T04:43:12.750Z,19.37
2018-10-17T04:45:41.553Z,29.60
2018-10-17T04:48:09.917Z,24.93
2018-10-17T04:50:38.508Z,27.60
2018-10-17T04:53:07.132Z,11.57
2018-10-17T04:55:35.369Z,24.10
2018-10-17T04:58:03.956Z,28.57
2018-10-17T05:00:33.683Z,22.63
2018-10-17T05:03:01.984Z,18.93
2018-10-17T05:05:30.624Z,24.07
2018-10-17T05:07:59.212Z,24.87
2018-10-17T05:10:27.508Z,25.97
2018-10-17T05:12:56.132Z,24.73
2018-10-17T05:15:24.836Z,23.77
2018-10-17T05:17:53.106Z,24.63
2018-10-17T05:20:21.920Z,23.20
2018-10-17T05:22:50.714Z,22.13
2018-10-17T05:25:19.037Z,25.23
2018-10-17T05:27:47.577Z,28.83
2018-10-17T05:30:16.159Z,24.57
2018-10-17T05:32:44.454Z,22.93
2018-10-17T05:35:13.372Z,26.73
2018-10-17T05:37:42.737Z,20.37
2018-10-17T05:40:10.916Z,23.57
2018-10-17T05:42:39.749Z,23.83
2018-10-17T05:45:08.190Z,25.53
2018-10-17T05:47:36.491Z,23.50
2018-10-17T05:50:05.053Z,23.87
2018-10-17T05:52:33.689Z,23.47
2018-10-17T05:55:02.124Z,23.67
2018-10-17T05:57:30.599Z,23.67
2018-10-17T05:59:59.044Z,20.47
2018-10-17T06:02:29.870Z,18.37
2018-10-17T06:04:58.325Z,9.27
2018-10-17T06:07:26.877Z,12.87
2018-10-17T06:09:55.225Z,11.50
2018-10-17T06:12:23.697Z,9.57
2018-10-17T06:14:52.328Z,8.07
2018-10-17T06:17:20.776Z,8.97
2018-10-17T06:19:49.423Z,9.30
2018-10-17T06:22:17.881Z,11.73
2018-10-17T06:24:46.274Z,9.00
2018-10-17T06:27:15.273Z,19.03
2018-10-17T06:29:43.652Z,12.33
2018-10-17T06:32:11.968Z,11.77
2018-10-17T06:34:40.715Z,15.20
2018-10-17T06:37:09.308Z,21.47
2018-10-17T06:39:37.571Z,9.20
2018-10-17T06:42:06.705Z,24.13
2018-10-17T06:44:35.422Z,18.80
2018-10-17T06:47:03.964Z,18.93
2018-10-17T06:49:33.305Z,18.60
2018-10-17T06:52:02.950Z,23.83
2018-10-17T06:54:31.377Z,15.60
2018-10-17T06:57:00.082Z,25.20
2018-10-17T06:59:28.754Z,7.67
2018-10-17T07:01:57.451Z,15.30
2018-10-17T07:04:25.920Z,21.17
2018-10-17T07:06:54.585Z,16.50
2018-10-17T07:09:22.860Z,18.97
2018-10-17T07:11:52.186Z,22.97
2018-10-17T07:14:21.740Z,15.20
2018-10-17T07:16:50.094Z,19.90
2018-10-17T07:19:18.906Z,19.63
2018-10-17T07:21:47.620Z,18.20
2018-10-17T07:24:15.934Z,19.80
2018-10-17T07:26:44.486Z,19.00
2018-10-17T07:29:12.888Z,11.77
2018-10-17T07:31:41.250Z,8.00
2018-10-17T07:34:09.930Z,18.17
2018-10-17T07:36:39.057Z,21.57
2018-10-17T07:39:09.217Z,18.83
2018-10-17T07:41:38.680Z,17.23
2018-10-17T07:44:07.962Z,15.63
2018-10-17T07:46:36.301Z,20.63
2018-10-17T07:49:05.315Z,18.67
2018-10-17T07:51:33.674Z,14.50
2018-10-17T07:54:03.463Z,18.30
2018-10-17T07:56:31.987Z,20.20
2018-10-17T07:59:00.819Z,18.77
2018-10-17T08:01:29.136Z,18.30
2018-10-17T08:03:57.862Z,8.27
2018-10-17T08:06:26.670Z,15.63
2018-10-17T08:08:55.069Z,7.57
2018-10-17T08:11:23.837Z,12.53
2018-10-17T08:13:52.308Z,13.40
2018-10-17T08:16:20.604Z,19.90
2018-10-17T08:18:49.197Z,15.53
2018-10-17T08:21:18.059Z,7.97
2018-10-17T08:23:46.409Z,11.67
2018-10-17T08:26:15.034Z,6.70
2018-10-17T08:28:43.741Z,6.03
2018-10-17T08:31:12.089Z,6.23
2018-10-17T08:33:40.735Z,7.10
2018-10-17T08:36:09.464Z,6.97
2018-10-17T08:38:37.653Z,15.07
2018-10-17T08:41:06.483Z,7.60
2018-10-17T08:43:34.997Z,6.07
2018-10-17T08:46:03.548Z,11.90
2018-10-17T08:48:32.052Z,6.90
2018-10-17T08:51:00.757Z,13.03
2018-10-17T08:53:29.220Z,8.70
2018-10-17T08:55:57.950Z,8.67
2018-10-17T08:58:27.260Z,15.20
2018-10-17T09:00:55.590Z,11.30
2018-10-17T09:03:24.070Z,6.97
2018-10-17T09:05:52.967Z,6.77
2018-10-17T09:08:21.389Z,14.80
2018-10-17T09:10:50.012Z,7.20
2018-10-17T09:13:18.545Z,7.30
2018-10-17T09:15:46.858Z,5.80
2018-10-17T09:18:15.549Z,5.63
2018-10-17T09:20:44.388Z,5.70
2018-10-17T09:23:12.811Z,5.33
2018-10-17T09:25:41.306Z,6.20
2018-10-17T09:28:09.649Z,6.70
2018-10-17T09:30:38.018Z,5.70
2018-10-17T09:33:06.733Z,9.67
2018-10-17T09:35:35.177Z,6.57
2018-10-17T09:38:03.491Z,6.70
2018-10-17T09:40:32.182Z,6.53
2018-10-17T09:43:00.540Z,6.10
2018-10-17T09:45:28.954Z,9.50
2018-10-17T09:47:57.874Z,6.10
2018-10-17T09:50:26.587Z,6.20
2018-10-17T09:52:55.081Z,9.07
2018-10-17T09:55:24.130Z,4.83
2018-10-17T09:57:52.784Z,5.13
2018-10-17T10:00:27.595Z,5.00
2018-10-17T10:02:56.283Z,5.27
2018-10-17T10:05:24.581Z,4.53
2018-10-17T10:07:53.060Z,5.10
2018-10-17T10:10:21.829Z,4.50
2018-10-17T10:12:50.213Z,4.97
2018-10-17T10:15:18.769Z,4.10
2018-10-17T10:17:47.402Z,4.53
2018-10-17T10:20:15.761Z,9.37
2018-10-17T10:22:44.385Z,7.30
2018-10-17T10:25:13.076Z,8.97
2018-10-17T10:27:41.437Z,7.23
2018-10-17T10:30:10.422Z,4.37
2018-10-17T10:32:38.840Z,4.67
2018-10-17T10:35:07.149Z,3.90
2018-10-17T10:37:35.640Z,4.03
2018-10-17T10:40:04.176Z,4.20
2018-10-17T10:42:32.453Z,4.07
2018-10-17T10:45:01.186Z,6.67
2018-10-17T10:47:30.147Z,5.77
2018-10-17T10:49:58.508Z,5.03
2018-10-17T10:52:27.955Z,4.20
2018-10-17T10:54:56.611Z,3.83
2018-10-17T10:57:24.943Z,4.30
2018-10-17T10:59:53.492Z,3.90
2018-10-17T11:02:22.201Z,3.90
2018-10-17T11:04:50.587Z,6.33
2018-10-17T11:07:19.527Z,4.60
2018-10-17T11:09:48.283Z,3.60
2018-10-17T11:12:16.573Z,3.60
2018-10-17T11:14:45.302Z,3.60
2018-10-17T11:17:14.214Z,3.77
2018-10-17T11:19:42.454Z,3.17
2018-10-17T11:22:10.955Z,3.00
2018-10-17T11:24:39.595Z,2.87
2018-10-17T11:27:07.974Z,2.60
2018-10-17T11:29:37.071Z,2.60
2018-10-17T11:32:06.369Z,3.07
2018-10-17T11:34:34.643Z,3.10
2018-10-17T11:37:28.970Z,4.57
2018-10-17T11:40:17.282Z,3.77
2018-10-17T11:42:46.284Z,3.30
2018-10-17T11:45:14.723Z,3.00
2018-10-17T11:47:43.012Z,2.30
2018-10-17T11:50:11.820Z,2.60
2018-10-17T11:52:40.197Z,2.47
2018-10-17T11:55:08.901Z,3.10
2018-10-17T11:57:37.520Z,2.20
2018-10-17T12:00:07.810Z,2.33
2018-10-17T12:02:36.632Z,3.03
2018-10-17T12:05:07.277Z,2.50
2018-10-17T12:07:35.264Z,3.03
2018-10-17T12:10:05.379Z,2.57
2018-10-17T12:12:34.043Z,3.47
2018-10-17T12:15:02.605Z,2.50
2018-10-17T12:17:31.496Z,2.47
2018-10-17T12:20:00.007Z,2.53
2018-10-17T12:22:28.322Z,2.83
2018-10-17T12:24:56.977Z,2.70
2018-10-17T12:27:25.533Z,2.43
2018-10-17T12:29:54.482Z,2.53
2018-10-17T12:32:23.007Z,2.30
2018-10-17T12:34:51.628Z,2.17
2018-10-17T12:37:19.961Z,2.10
2018-10-17T12:39:48.540Z,2.33
2018-10-17T12:42:17.029Z,2.07
2018-10-17T12:44:45.477Z,2.13
2018-10-17T12:47:14.176Z,2.20
2018-10-17T12:49:42.787Z,2.30
2018-10-17T12:52:11.163Z,1.80
2018-10-17T12:54:39.693Z,1.87
2018-10-17T12:57:08.484Z,1.83
2018-10-17T12:59:37.069Z,2.20
2018-10-17T13:02:06.759Z,2.13
2018-10-17T13:04:35.357Z,2.10
2018-10-17T13:07:03.741Z,2.00
2018-10-17T13:09:32.330Z,1.97
2018-10-17T13:12:01.065Z,1.77
2018-10-17T13:14:29.865Z,1.60
2018-10-17T13:16:59.335Z,1.83
2018-10-17T13:19:27.929Z,1.83
2018-10-17T13:21:57.293Z,1.93
2018-10-17T13:24:26.309Z,1.50
2018-10-17T13:26:54.883Z,1.90
2018-10-17T13:29:23.186Z,1.60
2018-10-17T13:31:51.609Z,1.63
2018-10-17T13:34:20.111Z,2.10
2018-10-17T13:36:48.394Z,1.80
2018-10-17T13:39:17.169Z,1.60
2018-10-17T13:41:45.692Z,1.90
2018-10-17T13:44:13.999Z,1.90
2018-10-17T13:46:42.501Z,2.20
2018-10-17T13:49:11.304Z,2.00
2018-10-17T13:51:39.506Z,1.90
2018-10-17T13:54:08.173Z,1.67
2018-10-17T13:56:36.800Z,1.97
2018-10-17T13:59:05.182Z,1.87
2018-10-17T14:01:33.535Z,1.70
2018-10-17T14:04:02.146Z,1.67
2018-10-17T14:06:30.415Z,1.60
2018-10-17T14:08:59.088Z,1.80
2018-10-17T14:11:27.779Z,2.03
2018-10-17T14:13:56.106Z,1.90
2018-10-17T14:16:24.516Z,2.07
2018-10-17T14:18:53.128Z,1.67
2018-10-17T14:21:21.466Z,1.73
2018-10-17T14:23:50.176Z,1.80
2018-10-17T14:26:18.615Z,1.87
2018-10-17T14:28:47.393Z,1.60
2018-10-17T14:31:16.178Z,1.50
2018-10-17T14:33:48.119Z,1.47
2018-10-17T14:36:16.488Z,1.53
2018-10-17T14:38:45.583Z,1.90
2018-10-17T14:41:14.490Z,2.00
2018-10-17T14:43:42.915Z,1.60
2018-10-17T14:46:11.909Z,1.97
2018-10-17T14:48:41.068Z,1.73
2018-10-17T14:51:09.530Z,1.60
2018-10-17T14:53:38.123Z,1.37
2018-10-17T14:56:06.715Z,1.37
2018-10-17T14:58:34.982Z,1.70
2018-10-17T15:01:03.487Z,1.50
2018-10-17T15:03:31.967Z,1.33
2018-10-17T15:06:02.905Z,1.80
2018-10-17T15:08:31.612Z,1.50
2018-10-17T15:11:00.719Z,1.30
2018-10-17T15:13:28.971Z,1.50
2018-10-17T15:15:57.564Z,1.30
2018-10-17T15:18:26.101Z,1.90
2018-10-17T15:21:01.970Z,1.60
2018-10-17T15:23:30.425Z,1.70
2018-10-17T15:25:59.331Z,1.37
2018-10-17T15:28:27.835Z,1.43
2018-10-17T15:30:56.577Z,1.50
2018-10-17T15:33:24.909Z,1.43
2018-10-17T15:35:53.581Z,1.40
2018-10-17T15:38:22.361Z,1.60
2018-10-17T15:40:50.718Z,1.37
2018-10-17T15:43:19.392Z,1.70
2018-10-17T15:45:48.196Z,1.60
2018-10-17T15:48:16.659Z,1.50
2018-10-17T15:50:45.069Z,1.50
2018-10-17T15:53:13.726Z,1.43
2018-10-17T15:55:42.280Z,1.60
2018-10-17T15:58:11.073Z,1.57
2018-10-17T16:00:40.536Z,1.70
2018-10-17T16:03:08.936Z,1.30
2018-10-17T16:05:38.014Z,1.63
2018-10-17T16:08:06.848Z,1.53
2018-10-17T16:10:35.180Z,1.60
2018-10-17T16:13:03.683Z,1.57
2018-10-17T16:15:34.886Z,1.60
2018-10-17T16:18:03.333Z,1.70
2018-10-17T16:20:31.930Z,1.30
2018-10-17T16:23:00.443Z,1.40
2018-10-17T16:25:28.831Z,1.30
2018-10-17T16:27:57.643Z,1.33
2018-10-17T16:30:26.794Z,1.40
2018-10-17T16:32:55.029Z,1.70
2018-10-17T16:35:23.851Z,1.53
2018-10-17T16:37:52.579Z,1.60
2018-10-17T16:40:20.868Z,1.47
2018-10-17T16:42:49.549Z,1.20
2018-10-17T16:45:18.021Z,3.60
2018-10-17T16:47:46.349Z,1.40
2018-10-17T16:50:14.990Z,1.30
2018-10-17T16:52:43.359Z,1.50
2018-10-17T16:55:12.136Z,1.83
2018-10-17T16:57:40.545Z,1.87
2018-10-17T17:00:35.453Z,1.63
2018-10-17T17:03:04.292Z,1.70
2018-10-17T17:05:32.597Z,2.17
2018-10-17T17:08:00.963Z,1.30
2018-10-17T17:10:29.532Z,2.70
2018-10-17T17:12:57.858Z,3.10
2018-10-17T17:15:26.158Z,2.83
2018-10-17T17:17:54.977Z,2.93
2018-10-17T17:20:23.309Z,2.90
2018-10-17T17:22:51.788Z,3.00
2018-10-17T17:25:20.810Z,2.20
2018-10-17T17:27:49.200Z,3.07
2018-10-17T17:30:18.748Z,4.80
2018-10-17T17:32:48.079Z,5.27
2018-10-17T17:35:16.808Z,3.40
2018-10-17T17:37:45.205Z,6.13
2018-10-17T17:40:14.567Z,3.97
2018-10-17T17:42:43.041Z,3.70
2018-10-17T17:45:11.427Z,2.77
2018-10-17T17:47:40.645Z,3.60
2018-10-17T17:50:09.389Z,2.73
2018-10-17T17:52:37.816Z,3.13
2018-10-17T17:55:07.415Z,3.00
2018-10-17T17:57:35.816Z,3.10
2018-10-17T18:00:04.168Z,3.23
2018-10-17T18:02:33.053Z,2.80
2018-10-17T18:05:01.620Z,4.77
2018-10-17T18:07:29.919Z,3.83
2018-10-17T18:09:58.729Z,3.00
2018-10-17T18:12:27.513Z,3.00
2018-10-17T18:14:56.098Z,3.40
2018-10-17T18:17:24.851Z,3.97
2018-10-17T18:19:53.308Z,2.20
2018-10-17T18:22:21.768Z,4.50
2018-10-17T18:24:50.126Z,5.43
2018-10-17T18:27:18.458Z,3.63
2018-10-17T18:29:46.807Z,3.80
2018-10-17T18:32:15.330Z,4.30
2018-10-17T18:34:43.955Z,4.30
2018-10-17T18:37:12.258Z,4.50
2018-10-17T18:39:40.672Z,5.03
2018-10-17T18:42:09.255Z,5.13
2018-10-17T18:44:37.620Z,5.23
2018-10-17T18:47:06.421Z,6.13
2018-10-17T18:49:34.685Z,6.30
2018-10-17T18:52:03.219Z,9.47
2018-10-17T18:54:31.798Z,7.03
2018-10-17T18:57:00.217Z,6.97
2018-10-17T18:59:28.636Z,6.73
2018-10-17T19:01:58.142Z,6.50
2018-10-17T19:04:26.483Z,6.57
2018-10-17T19:06:54.869Z,7.10
2018-10-17T19:09:24.806Z,7.93
2018-10-17T19:11:53.293Z,7.40
2018-10-17T19:14:21.590Z,8.70
2018-10-17T19:16:50.475Z,10.27
2018-10-17T19:19:18.814Z,11.80
2018-10-17T19:21:47.133Z,10.30
2018-10-17T19:24:15.662Z,9.47
2018-10-17T19:26:44.036Z,10.03
2018-10-17T19:29:12.684Z,10.03
2018-10-17T19:31:41.236Z,9.57
2018-10-17T19:34:09.574Z,9.37
2018-10-17T19:36:37.878Z,9.93
2018-10-17T19:39:08.747Z,10.70
2018-10-17T19:41:37.089Z,10.40
2018-10-17T19:44:05.394Z,16.27
2018-10-17T19:46:34.365Z,9.50
2018-10-17T19:49:02.783Z,10.57
2018-10-17T19:51:31.131Z,10.50
2018-10-17T19:54:00.007Z,11.00
2018-10-17T19:56:28.307Z,11.50
2018-10-17T19:58:56.609Z,12.93
2018-10-17T20:01:25.283Z,12.13
2018-10-17T20:03:53.647Z,11.27
2018-10-17T20:06:21.992Z,10.03
2018-10-17T20:08:50.938Z,11.10
2018-10-17T20:11:19.241Z,11.30
2018-10-17T20:13:47.608Z,12.00
2018-10-17T20:16:16.329Z,15.07
2018-10-17T20:18:44.768Z,11.53
2018-10-17T20:21:13.148Z,11.23
2018-10-17T20:23:41.983Z,11.43
2018-10-17T20:26:11.417Z,10.13
2018-10-17T20:28:39.733Z,10.77
2018-10-17T20:31:08.313Z,10.90
2018-10-17T20:33:36.661Z,10.80
2018-10-17T20:36:05.771Z,10.50
2018-10-17T20:38:34.633Z,12.03
2018-10-17T20:41:02.961Z,11.73
2018-10-17T20:43:31.269Z,11.53
2018-10-17T20:46:00.355Z,11.07
2018-10-17T20:48:28.700Z,11.30
2018-10-17T20:50:57.003Z,11.10
2018-10-17T20:55:56.339Z,11.53
2018-10-17T20:58:24.871Z,11.13
2018-10-17T21:00:53.264Z,11.13
2018-10-17T21:03:22.307Z,11.87
2018-10-17T21:05:51.317Z,11.80
2018-10-17T21:08:19.832Z,12.03
2018-10-17T21:10:48.747Z,11.83
2018-10-17T21:13:17.092Z,11.83
2018-10-17T21:15:45.476Z,11.23
2018-10-17T21:18:14.921Z,11.30
2018-10-17T21:20:43.398Z,12.10
2018-10-17T21:23:11.744Z,12.10
2018-10-17T21:25:40.477Z,11.93
2018-10-17T21:28:08.916Z,11.43
2018-10-17T21:30:37.384Z,11.67
2018-10-17T21:33:06.374Z,11.93
2018-10-17T21:35:34.753Z,11.43
2018-10-17T21:38:03.590Z,10.13
2018-10-17T21:40:32.564Z,11.53
2018-10-17T21:43:01.170Z,11.60
2018-10-17T21:45:29.534Z,11.73
2018-10-17T21:47:59.814Z,11.37
2018-10-17T21:50:28.811Z,10.20
2018-10-17T21:52:57.175Z,11.70
2018-10-17T21:55:25.947Z,12.00
2018-10-17T21:57:54.652Z,11.87
2018-10-17T22:00:23.557Z,13.30
2018-10-17T22:02:52.245Z,13.60
2018-10-17T22:05:20.585Z,13.37
2018-10-17T22:07:49.439Z,13.97
2018-10-17T22:10:18.095Z,14.57
2018-10-17T22:12:46.429Z,10.63
2018-10-17T22:15:14.770Z,11.50
2018-10-17T22:17:43.270Z,12.27
2018-10-17T22:20:11.626Z,11.93
2018-10-17T22:22:39.948Z,12.13
2018-10-17T22:25:08.714Z,12.13
2018-10-17T22:27:37.093Z,11.10
2018-10-17T22:30:06.130Z,13.00
2018-10-17T22:32:34.777Z,11.47
2018-10-17T22:35:03.129Z,11.93
2018-10-17T22:37:31.641Z,12.60
2018-10-17T22:40:00.625Z,12.20
2018-10-17T22:42:28.959Z,12.23
2018-10-17T22:44:57.317Z,12.30
2018-10-17T22:47:26.269Z,12.43
2018-10-17T22:49:54.621Z,13.33
2018-10-17T22:52:22.906Z,14.00
2018-10-17T22:55:06.467Z,14.57
2018-10-17T22:57:34.854Z,14.33
2018-10-17T23:00:03.718Z,13.33
2018-10-17T23:02:32.300Z,12.80
2018-10-17T23:05:01.067Z,15.47
2018-10-17T23:07:29.372Z,14.27
2018-10-17T23:09:57.960Z,14.47
2018-10-17T23:12:26.258Z,11.20
2018-10-17T23:14:55.195Z,12.37
2018-10-17T23:17:24.286Z,11.67
2018-10-17T23:19:52.775Z,12.43
2018-10-17T23:22:21.110Z,12.60
2018-10-17T23:24:50.070Z,12.50
2018-10-17T23:27:18.599Z,11.87
2018-10-17T23:29:46.949Z,13.27
2018-10-17T23:32:16.836Z,13.10
2018-10-17T23:34:45.065Z,12.50
2018-10-17T23:37:13.386Z,13.17
2018-10-17T23:39:41.969Z,13.40
2018-10-17T23:42:10.375Z,15.03
2018-10-17T23:44:38.806Z,14.63
2018-10-17T23:47:07.842Z,14.73
2018-10-17T23:49:36.141Z,13.60
2018-10-17T23:52:04.917Z,14.57
2018-10-17T23:54:33.315Z,13.70
2018-10-17T23:57:01.839Z,4.97
2018-10-17T23:59:30.221Z,11.97
